sensor_id;sensor_type;location;lat;lon;timestamp;pressure;altitude;pressure_sealevel;temperature;humidity
35224;BME280;21367;51.930;8.112;2022-09-17T06:30:29;100536.06;;;10.08;100.00
35224;BME280;21367;51.930;8.112;2022-09-17T06:35:35;100532.81;;;10.12;100.00
35224;BME280;21367;51.930;8.112;2022-09-17T06:40:39;100532.44;;;10.03;100.00
35224;BME280;21367;51.930;8.112;2022-09-17T06:45:50;100529.00;;;10.02;100.00
35224;BME280;21367;51.930;8.112;2022-09-17T06:50:55;100540.69;;;9.95;100.00
35224;BME280;21367;51.930;8.112;2022-09-17T06:56:06;100540.03;;;10.20;100.00
35224;BME280;21367;51.930;8.112;2022-09-17T07:01:15;100542.03;;;10.28;100.00
35224;BME280;21367;51.930;8.112;2022-09-17T07:06:19;100551.75;;;10.14;100.00
35224;BME280;21367;51.930;8.112;2022-09-17T07:11:24;100536.66;;;10.42;100.00
35224;BME280;21367;51.930;8.112;2022-09-17T07:16:31;100539.81;;;11.25;100.00
35224;BME280;21367;51.930;8.112;2022-09-17T07:21:36;100534.34;;;11.16;100.00
35224;BME280;21367;51.930;8.112;2022-09-17T07:26:41;100531.28;;;11.50;99.67
35224;BME280;21367;51.930;8.112;2022-09-17T15:27:56;100472.31;;;15.96;67.34
35224;BME280;21367;51.930;8.112;2022-09-17T15:33:00;100462.78;;;15.45;70.55
35224;BME280;21367;51.930;8.112;2022-09-17T15:38:19;100442.41;;;17.61;64.44
35224;BME280;21367;51.930;8.112;2022-09-17T15:43:28;100434.81;;;19.64;58.26
35224;BME280;21367;51.930;8.112;2022-09-17T15:48:35;100505.22;;;19.69;54.48
35224;BME280;21367;51.930;8.112;2022-09-17T15:53:49;100489.25;;;17.67;61.08
35224;BME280;21367;51.930;8.112;2022-09-17T15:58:58;100480.91;;;15.92;67.22
35224;BME280;21367;51.930;8.112;2022-09-17T16:04:18;100479.53;;;16.14;71.32
35224;BME280;21367;51.930;8.112;2022-09-17T16:09:39;100481.41;;;15.71;74.43
35224;BME280;21367;51.930;8.112;2022-09-17T16:14:48;100484.84;;;16.82;72.50
35224;BME280;21367;51.930;8.112;2022-09-17T16:19:53;100486.34;;;18.31;68.08
35224;BME280;21367;51.930;8.112;2022-09-17T16:24:57;100490.09;;;17.63;64.91
35224;BME280;21367;51.930;8.112;2022-09-17T16:30:05;100501.81;;;15.57;73.50
35224;BME280;21367;51.930;8.112;2022-09-17T16:35:11;100494.66;;;14.98;76.08
35224;BME280;21367;51.930;8.112;2022-09-17T16:40:16;100501.41;;;14.51;77.41
35224;BME280;21367;51.930;8.112;2022-09-17T16:45:23;100497.06;;;13.80;81.27
35224;BME280;21367;51.930;8.112;2022-09-17T16:50:27;100496.44;;;13.89;81.16
35224;BME280;21367;51.930;8.112;2022-09-17T16:55:31;100507.50;;;13.22;81.71
35224;BME280;21367;51.930;8.112;2022-09-17T17:00:37;100512.97;;;13.01;81.53
35224;BME280;21367;51.930;8.112;2022-09-17T17:05:44;100523.31;;;13.02;82.31
35224;BME280;21367;51.930;8.112;2022-09-17T17:10:48;100533.28;;;13.20;83.01
35224;BME280;21367;51.930;8.112;2022-09-17T17:15:55;100531.97;;;13.34;83.17
35224;BME280;21367;51.930;8.112;2022-09-17T17:21:06;100534.25;;;13.24;83.85
35224;BME280;21367;51.930;8.112;2022-09-17T17:26:10;100533.25;;;12.90;84.74
35224;BME280;21367;51.930;8.112;2022-09-17T17:31:17;100550.72;;;12.70;86.58
35224;BME280;21367;51.930;8.112;2022-09-17T17:36:21;100542.03;;;12.39;86.27
35224;BME280;21367;51.930;8.112;2022-09-17T17:41:25;100552.00;;;12.29;84.49
35224;BME280;21367;51.930;8.112;2022-09-17T17:46:32;100552.47;;;12.44;84.94
35224;BME280;21367;51.930;8.112;2022-09-17T17:51:36;100560.50;;;12.26;85.40
35224;BME280;21367;51.930;8.112;2022-09-17T17:56:39;100575.59;;;12.15;85.92
35224;BME280;21367;51.930;8.112;2022-09-17T18:01:45;100578.06;;;11.87;86.98
35224;BME280;21367;51.930;8.112;2022-09-17T18:06:49;100579.63;;;11.83;90.27
35224;BME280;21367;51.930;8.112;2022-09-17T18:11:53;100589.59;;;11.74;89.07
35224;BME280;21367;51.930;8.112;2022-09-17T18:17:00;100596.38;;;11.72;88.20
35224;BME280;21367;51.930;8.112;2022-09-17T18:22:03;100597.59;;;11.81;86.83
35224;BME280;21367;51.930;8.112;2022-09-17T18:27:07;100602.78;;;11.83;85.48
35224;BME280;21367;51.930;8.112;2022-09-17T18:32:13;100614.91;;;11.62;88.45
35224;BME280;21367;51.930;8.112;2022-09-17T18:37:17;100629.53;;;11.40;87.64
35224;BME280;21367;51.930;8.112;2022-09-17T18:42:21;100633.69;;;11.37;86.15
35224;BME280;21367;51.930;8.112;2022-09-17T18:47:28;100637.50;;;11.46;86.08
35224;BME280;21367;51.930;8.112;2022-09-17T18:52:32;100640.84;;;11.21;87.21
35224;BME280;21367;51.930;8.112;2022-09-17T18:57:35;100645.00;;;11.18;86.81
35224;BME280;21367;51.930;8.112;2022-09-17T19:02:41;100645.94;;;10.97;88.43
35224;BME280;21367;51.930;8.112;2022-09-17T19:07:46;100638.63;;;11.08;87.73
35224;BME280;21367;51.930;8.112;2022-09-17T19:12:50;100650.53;;;11.06;88.31
35224;BME280;21367;51.930;8.112;2022-09-17T19:17:56;100642.63;;;10.79;90.07
35224;BME280;21367;51.930;8.112;2022-09-17T19:22:59;100647.56;;;10.95;89.71
35224;BME280;21367;51.930;8.112;2022-09-17T19:28:03;100657.84;;;10.95;89.46
35224;BME280;21367;51.930;8.112;2022-09-17T19:33:10;100663.19;;;11.22;91.04
35224;BME280;21367;51.930;8.112;2022-09-17T19:38:14;100667.78;;;11.31;90.86
35224;BME280;21367;51.930;8.112;2022-09-17T19:43:18;100667.97;;;11.13;91.25
35224;BME280;21367;51.930;8.112;2022-09-17T19:48:24;100662.88;;;11.15;93.31
35224;BME280;21367;51.930;8.112;2022-09-17T19:53:28;100665.31;;;10.89;95.00
35224;BME280;21367;51.930;8.112;2022-09-17T19:58:31;100675.00;;;10.96;94.89
35224;BME280;21367;51.930;8.112;2022-09-17T20:03:40;100670.97;;;11.03;95.20
35224;BME280;21367;51.930;8.112;2022-09-17T20:08:45;100665.00;;;10.81;97.09
35224;BME280;21367;51.930;8.112;2022-09-17T20:13:54;100678.66;;;10.80;96.14
35224;BME280;21367;51.930;8.112;2022-09-17T20:19:02;100676.72;;;10.75;96.14
35224;BME280;21367;51.930;8.112;2022-09-17T20:24:06;100678.75;;;10.82;97.73
35224;BME280;21367;51.930;8.112;2022-09-17T20:29:10;100680.97;;;10.95;96.95
35224;BME280;21367;51.930;8.112;2022-09-17T20:34:16;100689.81;;;10.81;97.42
35224;BME280;21367;51.930;8.112;2022-09-17T20:39:20;100693.09;;;10.98;97.61
35224;BME280;21367;51.930;8.112;2022-09-17T20:44:24;100692.38;;;11.23;96.36
35224;BME280;21367;51.930;8.112;2022-09-17T20:49:31;100689.31;;;11.10;96.59
35224;BME280;21367;51.930;8.112;2022-09-17T20:54:35;100689.19;;;10.86;96.22
35224;BME280;21367;51.930;8.112;2022-09-17T20:59:39;100676.66;;;10.94;95.61
35224;BME280;21367;51.930;8.112;2022-09-17T21:04:55;100677.34;;;10.90;95.13
35224;BME280;21367;51.930;8.112;2022-09-17T21:09:59;100667.13;;;10.92;95.53
35224;BME280;21367;51.930;8.112;2022-09-17T21:15:05;100667.28;;;10.96;96.12
35224;BME280;21367;51.930;8.112;2022-09-17T21:20:11;100671.53;;;10.94;95.84
35224;BME280;21367;51.930;8.112;2022-09-17T21:25:15;100671.78;;;10.79;95.92
35224;BME280;21367;51.930;8.112;2022-09-17T21:30:19;100671.91;;;10.82;97.72
35224;BME280;21367;51.930;8.112;2022-09-17T21:35:25;100681.09;;;10.77;97.82
35224;BME280;21367;51.930;8.112;2022-09-17T21:40:32;100690.00;;;10.64;97.95
35224;BME280;21367;51.930;8.112;2022-09-17T21:45:36;100681.19;;;10.79;97.47
35224;BME280;21367;51.930;8.112;2022-09-17T21:50:42;100684.50;;;10.76;97.39
35224;BME280;21367;51.930;8.112;2022-09-17T21:55:47;100681.63;;;10.69;95.62
35224;BME280;21367;51.930;8.112;2022-09-17T22:00:50;100690.00;;;10.64;98.06
35224;BME280;21367;51.930;8.112;2022-09-17T22:06:00;100689.44;;;10.72;97.87
35224;BME280;21367;51.930;8.112;2022-09-17T22:11:06;100687.31;;;10.61;97.54
35224;BME280;21367;51.930;8.112;2022-09-17T22:16:10;100685.38;;;10.56;97.88
35224;BME280;21367;51.930;8.112;2022-09-17T22:21:19;100687.22;;;10.19;99.91
35224;BME280;21367;51.930;8.112;2022-09-17T22:26:26;100685.41;;;10.17;100.00
35224;BME280;21367;51.930;8.112;2022-09-17T22:31:30;100688.31;;;10.05;100.00
35224;BME280;21367;51.930;8.112;2022-09-17T22:36:37;100683.53;;;10.13;100.00
35224;BME280;21367;51.930;8.112;2022-09-17T22:41:41;100678.25;;;10.29;100.00
35224;BME280;21367;51.930;8.112;2022-09-17T22:46:47;100682.56;;;10.30;100.00
35224;BME280;21367;51.930;8.112;2022-09-17T22:51:53;100687.22;;;10.39;100.00
35224;BME280;21367;51.930;8.112;2022-09-17T22:56:56;100679.31;;;10.54;100.00
35224;BME280;21367;51.930;8.112;2022-09-17T23:02:00;100687.94;;;10.56;100.00
35224;BME280;21367;51.930;8.112;2022-09-17T23:07:07;100681.09;;;10.16;100.00
35224;BME280;21367;51.930;8.112;2022-09-17T23:12:11;100688.97;;;10.40;100.00
35224;BME280;21367;51.930;8.112;2022-09-17T23:17:15;100687.50;;;10.45;100.00
35224;BME280;21367;51.930;8.112;2022-09-17T23:22:22;100687.25;;;10.60;100.00
35224;BME280;21367;51.930;8.112;2022-09-17T23:27:26;100678.25;;;10.70;100.00
35224;BME280;21367;51.930;8.112;2022-09-17T23:32:30;100678.63;;;10.79;100.00
35224;BME280;21367;51.930;8.112;2022-09-17T23:37:38;100684.94;;;10.66;100.00
35224;BME280;21367;51.930;8.112;2022-09-17T23:42:41;100676.38;;;10.65;100.00
35224;BME280;21367;51.930;8.112;2022-09-17T23:47:45;100678.66;;;10.80;100.00
35224;BME280;21367;51.930;8.112;2022-09-17T23:52:52;100682.63;;;10.72;100.00
35224;BME280;21367;51.930;8.112;2022-09-17T23:57:56;100691.34;;;10.76;100.00
